Time;durP1;ratioP1;P1;durP2;ratioP2;P2;SDS_P1;SDS_P2;PMS_P1;PMS_P2;Temp;Humidity;BMP_temperature;BMP_pressure;BME280_temperature;BME280_humidity;BME280_pressure;Samples;Min_cycle;Max_cycle;Signal;HPM_P1;HPM_P2
2022/11/11 00:01:18;;;;;;;;;;;11.40;1.00;;;;;;5056790;28;19909;-73
2022/11/11 00:03:44;;;;;;;;;;;11.50;1.00;;;;;;5056410;28;19913;-74
2022/11/11 00:06:11;;;;;;;;;;;11.50;1.00;;;;;;5056655;28;19932;-74
2022/11/11 00:08:36;;;;;;;;;;;11.50;1.00;;;;;;5055571;28;19958;-77
2022/11/11 00:11:03;;;;;;;;;;;11.50;1.00;;;;;;5056515;28;20379;-77
2022/11/11 00:13:29;;;;;;;;;;;11.50;1.00;;;;;;5056485;28;20013;-75
2022/11/11 00:15:55;;;;;;;;;;;11.50;1.00;;;;;;5056502;28;19909;-75
2022/11/11 00:26:36;;;;;;;;;;;11.50;99.90;;;;;;5056174;28;19951;-74
2022/11/11 00:29:01;;;;;;;;;;;11.50;99.90;;;;;;5056067;28;19921;-76
2022/11/11 00:31:27;;;;;;;;;;;11.50;99.90;;;;;;5056389;28;19909;-76
2022/11/11 00:33:53;;;;;;;;;;;11.50;99.90;;;;;;5038184;28;19931;-75
2022/11/11 00:36:18;;;;;;;;;;;11.60;99.90;;;;;;5037989;28;19917;-75
2022/11/11 00:38:44;;;;;;;;;;;11.50;99.90;;;;;;5037914;28;19909;-74
2022/11/11 00:41:10;;;;;;;;;;;11.50;99.90;;;;;;5056164;28;19960;-74
2022/11/11 00:43:36;;;;;;;;;;;11.50;99.90;;;;;;5055927;28;19915;-75
2022/11/11 00:51:30;;;;;;;;;;;11.40;99.90;;;;;;5055589;28;19916;-78
2022/11/11 00:53:55;;;;;;;;;;;11.40;99.90;;;;;;5055610;28;19909;-75
2022/11/11 00:56:21;;;;;;;;;;;11.30;99.90;;;;;;5056109;28;19917;-76
2022/11/11 00:58:47;;;;;;;;;;;11.30;1.00;;;;;;5055948;28;19916;-75
2022/11/11 01:01:13;;;;;;;;;;;11.30;1.00;;;;;;5055709;28;19913;-75
2022/11/11 01:03:38;;;;;;;;;;;11.30;1.00;;;;;;5055428;28;19916;-76
2022/11/11 01:06:04;;;;;;;;;;;11.30;99.90;;;;;;5055498;28;19962;-75
2022/11/11 01:08:30;;;;;;;;;;;11.20;1.00;;;;;;5055566;28;19908;-75
2022/11/11 01:10:56;;;;;;;;;;;11.20;1.00;;;;;;5055328;28;20003;-75
2022/11/11 01:13:26;;;;;;;;;;;11.10;99.90;;;;;;5055268;28;19999;-75
2022/11/11 01:15:52;;;;;;;;;;;11.00;1.00;;;;;;5055421;28;19909;-75
2022/11/11 01:18:19;;;;;;;;;;;10.90;1.00;;;;;;5055250;28;19913;-74
2022/11/11 01:20:45;;;;;;;;;;;10.90;1.00;;;;;;5055391;28;19955;-75
2022/11/11 01:23:11;;;;;;;;;;;10.90;1.00;;;;;;5055211;28;19913;-73
2022/11/11 01:25:38;;;;;;;;;;;10.80;1.00;;;;;;5055255;28;19944;-74
2022/11/11 01:28:04;;;;;;;;;;;10.90;1.00;;;;;;5054932;28;20003;-75
2022/11/11 01:30:31;;;;;;;;;;;10.90;1.00;;;;;;5055160;28;19951;-74
2022/11/11 01:32:56;;;;;;;;;;;11.00;1.00;;;;;;5054959;28;19909;-75
2022/11/11 01:35:22;;;;;;;;;;;11.00;1.00;;;;;;5054846;28;20276;-76
2022/11/11 01:37:48;;;;;;;;;;;11.10;1.00;;;;;;5054881;28;20333;-75
2022/11/11 01:40:13;;;;;;;;;;;11.10;1.00;;;;;;5054820;28;19909;-75
2022/11/11 01:42:49;;;;;;;;;;;11.00;1.00;;;;;;5036925;28;19958;-74
2022/11/11 01:45:33;;;;;;;;;;;11.00;1.00;;;;;;5036704;28;19941;-75
2022/11/11 01:50:43;;;;;;;;;;;11.00;1.00;;;;;;5054595;28;20331;-76
2022/11/11 01:53:08;;;;;;;;;;;11.10;1.00;;;;;;5054887;28;19909;-76
2022/11/11 01:55:34;;;;;;;;;;;11.10;1.00;;;;;;5054735;28;19909;-75
2022/11/11 01:58:02;;;;;;;;;;;11.20;1.00;;;;;;5054508;28;19913;-77
2022/11/11 02:00:27;;;;;;;;;;;11.20;1.00;;;;;;5054363;28;19908;-74
2022/11/11 02:02:53;;;;;;;;;;;11.10;1.00;;;;;;5054419;28;20373;-76
2022/11/11 02:08:06;;;;;;;;;;;11.10;1.00;;;;;;5054353;28;19973;-77
2022/11/11 02:10:32;;;;;;;;;;;11.10;1.00;;;;;;5036411;28;19955;-73
2022/11/11 02:15:43;;;;;;;;;;;11.00;1.00;;;;;;5054371;28;19915;-74
2022/11/11 02:18:08;;;;;;;;;;;10.90;1.00;;;;;;5054105;28;19920;-74
2022/11/11 02:20:38;;;;;;;;;;;10.90;1.00;;;;;;5054123;28;19909;-75
2022/11/11 02:23:04;;;;;;;;;;;10.80;1.00;;;;;;5054274;28;19916;-76
2022/11/11 02:25:30;;;;;;;;;;;10.70;1.00;;;;;;5054103;28;19909;-75
2022/11/11 02:27:58;;;;;;;;;;;10.60;1.00;;;;;;5053892;28;19998;-75
2022/11/11 02:30:24;;;;;;;;;;;10.60;1.00;;;;;;5054268;28;20396;-77
2022/11/11 02:32:51;;;;;;;;;;;10.50;1.00;;;;;;5053583;28;19909;-76
2022/11/11 02:35:19;;;;;;;;;;;10.40;1.00;;;;;;5053814;28;20365;-75
2022/11/11 02:37:46;;;;;;;;;;;10.30;1.00;;;;;;5053869;28;19913;-76
2022/11/11 02:40:15;;;;;;;;;;;10.20;1.00;;;;;;5053822;28;20281;-74
2022/11/11 02:42:40;;;;;;;;;;;10.10;1.00;;;;;;5053971;28;19909;-74
2022/11/11 02:45:06;;;;;;;;;;;10.00;1.00;;;;;;5054089;28;19908;-76
2022/11/11 02:47:32;;;;;;;;;;;10.00;1.00;;;;;;5053911;28;19908;-78
2022/11/11 02:49:57;;;;;;;;;;;10.00;1.00;;;;;;5053764;28;19908;-73
2022/11/11 02:52:23;;;;;;;;;;;9.90;1.00;;;;;;5053777;28;19908;-75
2022/11/11 02:54:48;;;;;;;;;;;9.90;1.00;;;;;;5054126;28;19909;-75
2022/11/11 02:57:14;;;;;;;;;;;9.80;1.00;;;;;;5053675;28;19913;-74
2022/11/11 02:59:40;;;;;;;;;;;9.80;1.00;;;;;;5053682;28;19909;-77
2022/11/11 03:02:06;;;;;;;;;;;9.80;1.00;;;;;;5053743;28;19913;-73
2022/11/11 03:04:33;;;;;;;;;;;9.80;1.00;;;;;;5053623;28;20000;-77
2022/11/11 03:06:58;;;;;;;;;;;9.90;1.00;;;;;;5053991;28;19908;-75
2022/11/11 03:09:24;;;;;;;;;;;9.80;1.00;;;;;;5053677;28;19909;-75
2022/11/11 03:11:50;;;;;;;;;;;9.80;1.00;;;;;;5053598;28;19909;-74
2022/11/11 03:14:15;;;;;;;;;;;9.80;1.00;;;;;;5053672;28;20336;-75
2022/11/11 03:19:27;;;;;;;;;;;9.90;1.00;;;;;;5053199;28;19920;-76
2022/11/11 03:21:54;;;;;;;;;;;9.90;1.00;;;;;;5053511;28;19909;-75
2022/11/11 03:24:20;;;;;;;;;;;9.90;1.00;;;;;;5053593;28;19909;-74
2022/11/11 03:26:46;;;;;;;;;;;10.00;1.00;;;;;;5053455;28;20003;-73
2022/11/11 03:29:12;;;;;;;;;;;9.90;1.00;;;;;;5052763;28;19963;-76
2022/11/11 03:31:37;;;;;;;;;;;10.00;1.00;;;;;;5053419;28;19956;-76
2022/11/11 03:34:18;;;;;;;;;;;10.00;1.00;;;;;;5053577;28;19916;-74
2022/11/11 03:39:28;;;;;;;;;;;10.00;1.00;;;;;;5053290;28;19915;-74
2022/11/11 03:41:55;;;;;;;;;;;9.90;1.00;;;;;;5035405;28;19975;-73
2022/11/11 03:44:20;;;;;;;;;;;9.90;1.00;;;;;;5056196;28;19909;-76
2022/11/11 03:46:46;;;;;;;;;;;9.90;1.00;;;;;;5057023;28;19920;-75
2022/11/11 03:49:11;;;;;;;;;;;9.90;1.00;;;;;;5039081;28;19963;-76
2022/11/11 03:51:37;;;;;;;;;;;10.00;1.00;;;;;;5056988;28;20269;-75
2022/11/11 03:54:03;;;;;;;;;;;10.00;1.00;;;;;;5056949;28;19909;-75
2022/11/11 03:56:28;;;;;;;;;;;10.10;1.00;;;;;;5039073;28;19909;-77
2022/11/11 03:58:54;;;;;;;;;;;10.10;1.00;;;;;;5057189;28;19909;-75
2022/11/11 04:12:23;;;;;;;;;;;10.10;1.00;;;;;;5056400;28;20031;-74
2022/11/11 04:17:33;;;;;;;;;;;10.10;1.00;;;;;;5056316;28;20499;-75
2022/11/11 04:22:42;;;;;;;;;;;10.00;1.00;;;;;;5056169;28;19962;-76
2022/11/11 04:29:27;;;;;;;;;;;10.00;1.00;;;;;;5055809;28;20391;-78
2022/11/11 04:30:41;;;;;;;;;;;10.00;1.00;;;;;;5055814;28;19960;-74
2022/11/11 04:33:11;;;;;;;;;;;9.90;1.00;;;;;;5055353;28;20464;-75
2022/11/11 04:35:37;;;;;;;;;;;9.80;1.00;;;;;;5055797;28;20269;-76
2022/11/11 04:41:02;;;;;;;;;;;9.80;1.00;;;;;;5056052;28;20419;-75
2022/11/11 04:43:30;;;;;;;;;;;9.80;1.00;;;;;;5056202;28;19912;-77
2022/11/11 04:46:00;;;;;;;;;;;9.60;1.00;;;;;;5055944;28;19909;-74
2022/11/11 04:48:25;;;;;;;;;;;9.50;1.00;;;;;;5055721;28;20329;-77
2022/11/11 04:50:51;;;;;;;;;;;9.50;1.00;;;;;;5056053;28;19963;-76
2022/11/11 04:53:17;;;;;;;;;;;9.50;1.00;;;;;;5055858;28;19909;-75
2022/11/11 04:58:28;;;;;;;;;;;9.50;1.00;;;;;;5055454;28;19962;-75
2022/11/11 05:00:54;;;;;;;;;;;9.40;1.00;;;;;;5055431;28;19913;-74
2022/11/11 05:03:22;;;;;;;;;;;9.40;1.00;;;;;;5055866;28;19916;-73
2022/11/11 05:11:18;;;;;;;;;;;9.20;1.00;;;;;;5055592;28;19915;-77
2022/11/11 05:22:18;;;;;;;;;;;9.30;1.00;;;;;;5055180;28;19954;-76
2022/11/11 05:27:28;;;;;;;;;;;9.30;1.00;;;;;;5054986;28;19971;-74
2022/11/11 05:29:56;;;;;;;;;;;9.40;1.00;;;;;;5054656;28;19928;-75
2022/11/11 05:32:22;;;;;;;;;;;9.40;1.00;;;;;;5054986;28;20007;-74
2022/11/11 05:34:47;;;;;;;;;;;9.30;1.00;;;;;;5054935;28;20399;-74
2022/11/11 05:37:13;;;;;;;;;;;9.30;1.00;;;;;;5054846;28;19948;-75
2022/11/11 05:39:39;;;;;;;;;;;9.40;15.60;;;;;;5054968;28;19912;-74
2022/11/11 05:42:04;;;;;;;;;;;9.40;10.00;;;;;;5054716;28;19909;-74
2022/11/11 05:44:30;;;;;;;;;;;9.50;25.80;;;;;;5054856;28;19909;-74
2022/11/11 05:46:56;;;;;;;;;;;9.40;18.40;;;;;;5054541;28;19913;-77
2022/11/11 05:49:22;;;;;;;;;;;9.50;55.20;;;;;;5054600;28;20396;-76
2022/11/11 05:51:48;;;;;;;;;;;9.50;51.50;;;;;;5054564;28;19941;-76
2022/11/11 05:54:13;;;;;;;;;;;9.60;77.20;;;;;;5054621;28;19932;-75
2022/11/11 05:56:39;;;;;;;;;;;9.60;72.30;;;;;;5054502;28;19915;-75
2022/11/11 05:59:06;;;;;;;;;;;9.70;90.50;;;;;;5054810;28;19912;-75
2022/11/11 06:01:31;;;;;;;;;;;9.70;70.00;;;;;;5054535;28;20355;-73
2022/11/11 06:03:57;;;;;;;;;;;9.60;59.50;;;;;;5054712;28;19947;-75
2022/11/11 06:06:23;;;;;;;;;;;9.60;70.40;;;;;;5053565;28;19912;-74
2022/11/11 06:08:48;;;;;;;;;;;9.60;81.90;;;;;;5054350;28;20414;-75
2022/11/11 06:11:14;;;;;;;;;;;9.50;73.00;;;;;;5054187;28;19908;-75
2022/11/11 06:13:39;;;;;;;;;;;9.50;90.70;;;;;;5054257;28;20345;-74
2022/11/11 06:16:07;;;;;;;;;;;9.60;93.60;;;;;;5054480;28;19909;-74
2022/11/11 06:18:32;;;;;;;;;;;9.50;96.60;;;;;;5053984;28;19908;-74
2022/11/11 06:20:58;;;;;;;;;;;9.50;96.00;;;;;;5054112;28;19958;-75
2022/11/11 06:23:25;;;;;;;;;;;9.50;99.40;;;;;;5036094;28;19908;-75
2022/11/11 06:28:35;;;;;;;;;;;9.50;89.40;;;;;;5053629;28;19928;-74
2022/11/11 06:31:01;;;;;;;;;;;9.50;99.90;;;;;;5054266;28;19909;-76
2022/11/11 06:33:26;;;;;;;;;;;9.40;96.20;;;;;;5053858;28;19909;-76
2022/11/11 06:35:52;;;;;;;;;;;9.40;99.40;;;;;;5054060;28;20233;-77
2022/11/11 06:38:18;;;;;;;;;;;9.40;99.90;;;;;;5036064;28;19959;-73
2022/11/11 06:40:43;;;;;;;;;;;9.50;99.90;;;;;;5053998;28;19955;-73
2022/11/11 06:43:09;;;;;;;;;;;9.50;99.90;;;;;;5053870;28;19951;-76
2022/11/11 06:45:35;;;;;;;;;;;9.50;99.90;;;;;;5053689;28;19909;-72
2022/11/11 06:48:04;;;;;;;;;;;9.50;99.90;;;;;;5053714;28;19928;-76
2022/11/11 06:50:30;;;;;;;;;;;9.40;99.90;;;;;;5053879;28;19908;-74
2022/11/11 06:53:02;;;;;;;;;;;9.40;99.90;;;;;;5053903;28;20392;-76
2022/11/11 06:55:27;;;;;;;;;;;9.40;95.60;;;;;;5054041;28;20365;-75
2022/11/11 06:57:53;;;;;;;;;;;9.40;99.90;;;;;;5035802;28;19966;-74
2022/11/11 07:00:19;;;;;;;;;;;9.40;99.90;;;;;;5053769;28;20369;-74
2022/11/11 07:02:46;;;;;;;;;;;9.40;99.90;;;;;;5053993;28;19932;-75
2022/11/11 07:05:12;;;;;;;;;;;9.50;99.90;;;;;;5053566;28;19920;-77
2022/11/11 07:07:37;;;;;;;;;;;9.40;99.90;;;;;;5053649;28;20369;-77
2022/11/11 07:10:06;;;;;;;;;;;9.50;99.90;;;;;;5053685;28;19913;-76
2022/11/11 07:12:31;;;;;;;;;;;9.40;99.90;;;;;;5053495;28;19944;-73
2022/11/11 07:14:57;;;;;;;;;;;9.40;99.90;;;;;;5053474;28;19942;-72
2022/11/11 07:17:22;;;;;;;;;;;9.40;99.90;;;;;;5053633;28;19963;-77
2022/11/11 07:19:48;;;;;;;;;;;9.50;99.90;;;;;;5057070;28;19908;-75
2022/11/11 07:22:14;;;;;;;;;;;9.60;99.90;;;;;;5057412;28;19909;-75
2022/11/11 07:24:40;;;;;;;;;;;9.50;99.90;;;;;;5057509;28;19909;-77
2022/11/11 07:27:05;;;;;;;;;;;9.60;99.90;;;;;;5057513;28;20011;-73
2022/11/11 07:29:31;;;;;;;;;;;9.60;99.90;;;;;;5056940;28;20427;-75
2022/11/11 07:31:56;;;;;;;;;;;9.60;99.90;;;;;;5057196;28;19909;-77
2022/11/11 07:34:22;;;;;;;;;;;9.60;99.90;;;;;;5039428;28;19913;-76
2022/11/11 07:36:47;;;;;;;;;;;9.50;99.90;;;;;;5039312;28;19909;-74
2022/11/11 07:39:13;;;;;;;;;;;9.60;99.90;;;;;;5057076;28;20276;-74
2022/11/11 07:41:39;;;;;;;;;;;9.70;99.90;;;;;;5057508;28;19915;-73
2022/11/11 07:44:04;;;;;;;;;;;9.80;99.90;;;;;;5057105;28;19916;-75
2022/11/11 07:46:30;;;;;;;;;;;9.80;99.90;;;;;;5038989;28;19909;-76
2022/11/11 07:48:55;;;;;;;;;;;9.80;99.90;;;;;;5056956;28;20030;-74
2022/11/11 07:51:21;;;;;;;;;;;9.90;99.90;;;;;;5057096;28;19912;-74
2022/11/11 07:53:46;;;;;;;;;;;10.00;99.90;;;;;;5056947;28;19915;-74
2022/11/11 07:56:12;;;;;;;;;;;10.00;99.90;;;;;;5056820;28;19909;-73
2022/11/11 07:58:38;;;;;;;;;;;10.00;99.90;;;;;;5056691;28;20333;-75
2022/11/11 08:01:03;;;;;;;;;;;10.00;99.90;;;;;;5056856;28;19916;-76
2022/11/11 08:03:29;;;;;;;;;;;10.00;98.00;;;;;;5056697;28;19992;-74
2022/11/11 08:05:55;;;;;;;;;;;10.00;99.90;;;;;;5056510;28;19908;-74
2022/11/11 08:08:24;;;;;;;;;;;10.00;99.90;;;;;;5056504;28;19913;-75
2022/11/11 08:10:52;;;;;;;;;;;10.20;99.90;;;;;;5056562;28;19949;-73
2022/11/11 08:16:05;;;;;;;;;;;10.30;99.90;;;;;;5056100;28;19970;-74
2022/11/11 08:18:30;;;;;;;;;;;10.30;99.90;;;;;;5056327;28;20381;-77
2022/11/11 08:20:56;;;;;;;;;;;10.40;69.90;;;;;;5056283;28;19908;-74
2022/11/11 08:23:31;;;;;;;;;;;10.40;58.60;;;;;;5056385;28;19909;-76
2022/11/11 08:25:58;;;;;;;;;;;10.40;69.10;;;;;;5038059;28;19909;-75
2022/11/11 08:28:23;;;;;;;;;;;10.40;43.40;;;;;;5055895;28;19983;-75
2022/11/11 08:30:49;;;;;;;;;;;10.40;36.80;;;;;;5055295;28;19912;-74
2022/11/11 08:33:14;;;;;;;;;;;10.40;23.50;;;;;;5056026;28;19909;-74
2022/11/11 08:35:40;;;;;;;;;;;10.40;10.10;;;;;;5056101;28;20284;-73
2022/11/11 08:38:05;;;;;;;;;;;10.30;17.30;;;;;;5038006;28;19977;-73
2022/11/11 08:40:31;;;;;;;;;;;10.40;51.60;;;;;;5055861;28;20003;-75
2022/11/11 08:42:57;;;;;;;;;;;10.60;49.40;;;;;;5056188;28;20003;-75
2022/11/11 08:45:23;;;;;;;;;;;10.60;34.70;;;;;;5055824;28;19908;-76
2022/11/11 08:47:49;;;;;;;;;;;10.60;15.40;;;;;;5055763;28;19967;-75
2022/11/11 08:50:14;;;;;;;;;;;10.70;16.60;;;;;;5055780;28;19916;-77
2022/11/11 08:52:47;;;;;;;;;;;10.70;4.10;;;;;;5055624;28;20285;-76
2022/11/11 08:55:12;;;;;;;;;;;10.60;1.00;;;;;;5055587;28;19909;-76
2022/11/11 08:57:38;;;;;;;;;;;10.70;1.00;;;;;;5055800;28;20392;-77
2022/11/11 09:00:05;;;;;;;;;;;10.80;1.00;;;;;;5055965;28;19913;-74
2022/11/11 09:02:31;;;;;;;;;;;10.80;1.00;;;;;;5055566;28;19909;-75
2022/11/11 09:04:56;;;;;;;;;;;10.80;1.00;;;;;;5037727;28;19919;-75
2022/11/11 09:07:22;;;;;;;;;;;10.80;1.00;;;;;;5055353;28;19919;-75
2022/11/11 09:09:48;;;;;;;;;;;10.80;1.00;;;;;;5055273;28;20008;-73
2022/11/11 09:12:13;;;;;;;;;;;10.60;1.00;;;;;;5055198;28;19909;-75
2022/11/11 09:14:39;;;;;;;;;;;10.70;1.00;;;;;;5055323;28;20404;-75
2022/11/11 09:17:05;;;;;;;;;;;10.80;1.00;;;;;;5055292;28;19916;-74
2022/11/11 09:19:31;;;;;;;;;;;10.70;1.00;;;;;;5055766;28;19913;-76
2022/11/11 09:21:57;;;;;;;;;;;10.70;1.00;;;;;;5055228;28;19954;-75
2022/11/11 09:24:22;;;;;;;;;;;10.80;1.00;;;;;;5055482;28;19913;-73
2022/11/11 09:26:48;;;;;;;;;;;10.80;1.00;;;;;;5055204;28;20250;-74
2022/11/11 09:29:14;;;;;;;;;;;10.90;1.00;;;;;;5054646;28;20003;-77
2022/11/11 09:31:39;;;;;;;;;;;11.00;1.00;;;;;;5055123;28;19963;-73
2022/11/11 09:34:08;;;;;;;;;;;11.00;1.00;;;;;;5055010;28;20344;-73
2022/11/11 09:36:34;;;;;;;;;;;10.90;1.00;;;;;;5054711;28;20265;-74
2022/11/11 09:39:00;;;;;;;;;;;11.00;1.00;;;;;;5037087;28;19971;-76
2022/11/11 09:41:34;;;;;;;;;;;11.20;1.00;;;;;;5054627;28;20008;-76
2022/11/11 09:44:00;;;;;;;;;;;11.40;99.90;;;;;;5054735;28;20265;-73
2022/11/11 09:46:30;;;;;;;;;;;11.40;99.90;;;;;;5054658;28;19909;-73
2022/11/11 09:49:02;;;;;;;;;;;11.20;99.90;;;;;;5054868;28;20388;-76
2022/11/11 09:51:31;;;;;;;;;;;11.10;99.90;;;;;;5054728;28;19988;-76
2022/11/11 09:54:04;;;;;;;;;;;11.10;99.90;;;;;;5054527;28;19951;-73
2022/11/11 09:56:31;;;;;;;;;;;11.20;99.90;;;;;;5054715;28;19916;-76
2022/11/11 09:59:15;;;;;;;;;;;11.30;99.90;;;;;;5054544;28;19909;-77
2022/11/11 10:01:42;;;;;;;;;;;11.10;99.90;;;;;;5054386;28;19910;-74
2022/11/11 10:04:08;;;;;;;;;;;11.00;99.90;;;;;;5054453;28;19972;-75
2022/11/11 10:06:35;;;;;;;;;;;11.20;99.90;;;;;;5054293;28;19970;-76
2022/11/11 10:09:04;;;;;;;;;;;11.30;99.90;;;;;;5054411;28;20297;-77
2022/11/11 10:11:30;;;;;;;;;;;11.40;99.90;;;;;;5054338;28;19909;-75
2022/11/11 10:13:55;;;;;;;;;;;11.30;99.90;;;;;;5054380;28;19908;-75
2022/11/11 10:16:21;;;;;;;;;;;11.20;99.90;;;;;;5054240;28;19913;-75
2022/11/11 10:18:58;;;;;;;;;;;11.10;99.90;;;;;;5054099;28;19909;-76
2022/11/11 10:21:32;;;;;;;;;;;11.20;99.90;;;;;;5053992;28;19909;-74
2022/11/11 10:23:59;;;;;;;;;;;11.10;99.90;;;;;;5054454;28;19909;-74
2022/11/11 10:26:34;;;;;;;;;;;11.10;99.90;;;;;;5054135;28;19952;-76
2022/11/11 10:29:00;;;;;;;;;;;11.20;99.90;;;;;;5053771;28;19920;-74
2022/11/11 10:31:26;;;;;;;;;;;11.20;99.90;;;;;;5054376;28;19962;-73
2022/11/11 10:33:52;;;;;;;;;;;11.20;99.90;;;;;;5053804;28;19913;-74
2022/11/11 10:36:18;;;;;;;;;;;11.20;31.60;;;;;;5054017;28;20460;-75
2022/11/11 10:38:48;;;;;;;;;;;11.40;53.00;;;;;;5053931;28;19909;-74
2022/11/11 10:41:17;;;;;;;;;;;11.50;1.00;;;;;;5035850;28;19909;-74
2022/11/11 10:43:46;;;;;;;;;;;11.30;1.00;;;;;;5035800;28;20005;-77
2022/11/11 10:46:15;;;;;;;;;;;11.20;30.50;;;;;;5053481;28;20392;-76
2022/11/11 10:48:53;;;;;;;;;;;11.20;99.90;;;;;;5053570;28;20009;-74
2022/11/11 10:51:20;;;;;;;;;;;11.40;99.90;;;;;;5053840;28;20281;-75
2022/11/11 10:54:04;;;;;;;;;;;11.50;85.40;;;;;;5035229;28;20003;-76
2022/11/11 10:56:48;;;;;;;;;;;11.50;21.20;;;;;;5035721;28;19908;-76
2022/11/11 10:59:34;;;;;;;;;;;11.60;1.00;;;;;;5053916;28;19909;-74
2022/11/11 11:02:05;;;;;;;;;;;11.60;1.00;;;;;;5036326;28;20004;-74
2022/11/11 11:04:47;;;;;;;;;;;11.60;5.00;;;;;;5035656;28;20011;-74
2022/11/11 11:07:15;;;;;;;;;;;11.70;1.00;;;;;;5053660;28;19912;-73
2022/11/11 11:09:44;;;;;;;;;;;11.50;1.00;;;;;;5053467;28;19935;-75
2022/11/11 11:12:13;;;;;;;;;;;11.50;1.00;;;;;;5053618;28;19916;-75
2022/11/11 11:14:41;;;;;;;;;;;11.40;1.00;;;;;;5053552;28;19909;-75
2022/11/11 11:17:09;;;;;;;;;;;11.50;1.00;;;;;;5053429;28;19909;-75
2022/11/11 11:19:35;;;;;;;;;;;11.50;1.00;;;;;;5053615;28;19909;-74
2022/11/11 11:22:01;;;;;;;;;;;11.40;1.00;;;;;;5053458;28;20254;-73
2022/11/11 11:24:28;;;;;;;;;;;11.40;1.00;;;;;;5053561;28;19909;-74
2022/11/11 11:26:56;;;;;;;;;;;11.50;1.00;;;;;;5053247;28;19920;-74
2022/11/11 11:29:41;;;;;;;;;;;11.60;1.00;;;;;;5053074;28;19987;-76
2022/11/11 11:32:23;;;;;;;;;;;11.50;1.00;;;;;;5053460;28;20019;-75
2022/11/11 11:34:48;;;;;;;;;;;11.60;1.00;;;;;;5053464;28;19915;-74
2022/11/11 11:37:14;;;;;;;;;;;11.60;1.00;;;;;;5053190;28;19909;-73
2022/11/11 11:39:40;;;;;;;;;;;11.60;1.00;;;;;;5053207;28;20391;-75
2022/11/11 11:42:06;;;;;;;;;;;11.60;1.00;;;;;;5053095;28;19995;-75
2022/11/11 11:44:33;;;;;;;;;;;11.50;1.00;;;;;;5053136;28;19936;-72
2022/11/11 11:47:05;;;;;;;;;;;11.50;1.00;;;;;;5053413;28;19913;-74
2022/11/11 11:50:00;;;;;;;;;;;11.40;1.00;;;;;;5053273;28;19915;-72
2022/11/11 11:52:34;;;;;;;;;;;11.50;1.00;;;;;;5031796;28;20293;-74
2022/11/11 11:55:03;;;;;;;;;;;11.60;1.00;;;;;;5053170;28;20431;-75
2022/11/11 11:57:37;;;;;;;;;;;11.70;1.00;;;;;;5053274;28;19913;-73
2022/11/11 12:00:04;;;;;;;;;;;11.80;1.00;;;;;;5053038;28;19917;-73
2022/11/11 12:02:36;;;;;;;;;;;11.70;1.00;;;;;;5053179;28;19908;-77
2022/11/11 12:05:20;;;;;;;;;;;11.70;1.00;;;;;;5053793;28;20297;-74
2022/11/11 12:08:00;;;;;;;;;;;11.70;1.00;;;;;;5056535;28;20284;-78
2022/11/11 12:10:33;;;;;;;;;;;11.50;1.00;;;;;;5056781;28;19909;-74
2022/11/11 12:13:04;;;;;;;;;;;11.50;1.00;;;;;;5056531;28;20292;-76
2022/11/11 12:15:33;;;;;;;;;;;11.50;1.00;;;;;;5056568;28;19909;-74
2022/11/11 12:18:17;;;;;;;;;;;11.60;1.00;;;;;;5056359;28;19972;-76
2022/11/11 12:20:49;;;;;;;;;;;11.80;1.00;;;;;;5056441;28;19909;-73
2022/11/11 12:23:32;;;;;;;;;;;11.80;1.00;;;;;;5056526;28;19909;-76
2022/11/11 12:26:16;;;;;;;;;;;11.70;1.00;;;;;;5056343;28;19909;-75
2022/11/11 12:28:48;;;;;;;;;;;11.80;1.00;;;;;;5055778;28;19959;-76
2022/11/11 12:31:14;;;;;;;;;;;12.00;1.00;;;;;;5056087;28;19919;-72
2022/11/11 12:33:45;;;;;;;;;;;12.10;99.90;;;;;;5056334;28;20007;-77
2022/11/11 12:36:30;;;;;;;;;;;11.90;99.90;;;;;;5056138;28;19913;-76
2022/11/11 12:38:58;;;;;;;;;;;11.90;1.00;;;;;;5056144;28;19917;-76
2022/11/11 12:41:35;;;;;;;;;;;12.20;1.00;;;;;;5056119;28;20357;-76
2022/11/11 12:44:08;;;;;;;;;;;12.20;99.90;;;;;;5056149;28;19991;-76
2022/11/11 12:46:36;;;;;;;;;;;12.40;99.90;;;;;;5055994;28;20396;-74
2022/11/11 12:49:09;;;;;;;;;;;12.50;99.90;;;;;;5056147;28;19913;-75
2022/11/11 12:51:44;;;;;;;;;;;12.40;99.90;;;;;;5056212;28;20281;-76
2022/11/11 12:54:28;;;;;;;;;;;12.20;99.90;;;;;;5055965;28;19908;-76
2022/11/11 12:57:01;;;;;;;;;;;12.20;99.90;;;;;;5055769;28;20424;-78
2022/11/11 12:59:39;;;;;;;;;;;12.10;99.90;;;;;;5055852;28;19909;-75
2022/11/11 13:02:20;;;;;;;;;;;12.20;99.90;;;;;;5037521;28;19909;-76
2022/11/11 13:04:49;;;;;;;;;;;12.30;99.90;;;;;;5055895;28;19913;-77
2022/11/11 13:07:33;;;;;;;;;;;12.40;99.90;;;;;;5037552;28;19913;-77
2022/11/11 13:10:11;;;;;;;;;;;12.40;99.90;;;;;;5055753;28;19909;-72
2022/11/11 13:12:50;;;;;;;;;;;12.50;99.90;;;;;;5055772;28;19916;-75
2022/11/11 13:15:20;;;;;;;;;;;12.60;99.90;;;;;;5055690;28;19908;-74
2022/11/11 13:17:46;;;;;;;;;;;12.50;99.90;;;;;;5055172;28;19944;-75
2022/11/11 13:20:30;;;;;;;;;;;12.40;99.90;;;;;;5055539;28;19913;-76
2022/11/11 13:22:56;;;;;;;;;;;12.40;99.90;;;;;;5055159;28;19909;-77
2022/11/11 13:25:22;;;;;;;;;;;12.60;99.90;;;;;;5055356;28;20373;-75
2022/11/11 13:27:48;;;;;;;;;;;12.80;99.90;;;;;;5055131;28;19920;-75
2022/11/11 13:30:46;;;;;;;;;;;12.90;99.90;;;;;;5054799;28;19921;-77
2022/11/11 13:33:16;;;;;;;;;;;12.90;99.90;;;;;;5000586;28;19920;-75
2022/11/11 13:35:52;;;;;;;;;;;12.70;99.90;;;;;;5055010;28;20349;-76
2022/11/11 13:38:31;;;;;;;;;;;12.60;99.90;;;;;;5055274;28;19909;-74
2022/11/11 13:40:59;;;;;;;;;;;12.50;99.90;;;;;;5055032;28;19943;-74
2022/11/11 13:43:33;;;;;;;;;;;12.50;99.90;;;;;;5036955;28;20292;-73
2022/11/11 13:46:00;;;;;;;;;;;12.60;99.90;;;;;;5054842;28;19908;-73
2022/11/11 13:48:35;;;;;;;;;;;12.70;99.90;;;;;;5055065;28;19912;-75
2022/11/11 13:51:30;;;;;;;;;;;12.70;99.90;;;;;;5054928;28;19968;-77
2022/11/11 13:53:56;;;;;;;;;;;12.60;99.90;;;;;;5016058;28;20353;-74
2022/11/11 13:56:24;;;;;;;;;;;12.70;99.90;;;;;;5054637;28;20365;-73
2022/11/11 13:58:51;;;;;;;;;;;12.80;99.90;;;;;;5054643;28;19957;-74
2022/11/11 14:01:16;;;;;;;;;;;12.70;99.90;;;;;;5054564;28;19913;-75
2022/11/11 14:03:42;;;;;;;;;;;12.80;99.90;;;;;;5054485;28;19912;-75
2022/11/11 14:06:13;;;;;;;;;;;13.10;99.90;;;;;;5054586;28;19909;-75
2022/11/11 14:08:45;;;;;;;;;;;13.30;99.90;;;;;;5054692;28;19919;-75
2022/11/11 14:11:23;;;;;;;;;;;13.30;99.90;;;;;;5036397;28;19960;-74
2022/11/11 14:13:48;;;;;;;;;;;13.10;99.90;;;;;;5054312;28;19909;-73
2022/11/11 14:16:34;;;;;;;;;;;12.90;99.90;;;;;;5054534;28;19959;-75
2022/11/11 14:19:18;;;;;;;;;;;13.20;99.90;;;;;;5054263;28;19909;-76
2022/11/11 14:21:46;;;;;;;;;;;13.60;99.90;;;;;;5054140;28;20296;-75
2022/11/11 14:24:21;;;;;;;;;;;14.40;99.90;;;;;;5054219;28;19944;-74
2022/11/11 14:26:57;;;;;;;;;;;14.50;99.90;;;;;;5054263;28;19916;-76
2022/11/11 14:29:26;;;;;;;;;;;13.80;99.90;;;;;;5053260;28;20011;-73
2022/11/11 14:32:14;;;;;;;;;;;13.60;99.90;;;;;;5053873;28;19962;-73
2022/11/11 14:34:58;;;;;;;;;;;13.70;99.90;;;;;;5053685;28;19909;-74
2022/11/11 14:37:24;;;;;;;;;;;13.40;99.90;;;;;;5053996;28;20373;-76
2022/11/11 14:39:51;;;;;;;;;;;13.30;99.90;;;;;;5036140;28;19909;-75
2022/11/11 14:42:34;;;;;;;;;;;13.30;99.90;;;;;;5053819;28;19955;-75
2022/11/11 14:45:29;;;;;;;;;;;13.00;99.90;;;;;;5054025;28;19909;-77
2022/11/11 14:47:55;;;;;;;;;;;13.00;99.90;;;;;;5032161;28;19913;-76
2022/11/11 14:50:27;;;;;;;;;;;12.90;99.90;;;;;;5053787;28;19991;-74
2022/11/11 14:52:53;;;;;;;;;;;12.90;99.90;;;;;;5053701;28;19919;-74
2022/11/11 14:55:22;;;;;;;;;;;12.90;99.90;;;;;;5053890;28;19988;-75
2022/11/11 14:57:53;;;;;;;;;;;12.80;99.90;;;;;;5053943;28;20072;-74
2022/11/11 15:00:20;;;;;;;;;;;12.80;99.90;;;;;;5035913;28;19913;-74
2022/11/11 15:02:54;;;;;;;;;;;12.80;99.90;;;;;;5053720;28;19916;-75
2022/11/11 15:05:40;;;;;;;;;;;12.80;99.90;;;;;;5053603;28;19909;-74
2022/11/11 15:08:05;;;;;;;;;;;12.60;99.90;;;;;;5003023;28;19917;-76
2022/11/11 15:10:31;;;;;;;;;;;12.50;99.90;;;;;;5053679;28;19916;-73
2022/11/11 15:12:59;;;;;;;;;;;12.50;99.90;;;;;;5053928;28;19916;-76
2022/11/11 15:15:26;;;;;;;;;;;12.50;99.90;;;;;;5053643;28;19908;-76
2022/11/11 15:17:58;;;;;;;;;;;12.40;99.90;;;;;;5053647;28;19920;-74
2022/11/11 15:20:29;;;;;;;;;;;12.30;99.90;;;;;;5053439;28;19994;-73
2022/11/11 15:23:19;;;;;;;;;;;12.30;99.90;;;;;;5053536;28;19909;-74
2022/11/11 15:25:48;;;;;;;;;;;12.30;99.90;;;;;;5053235;28;19916;-73
2022/11/11 15:28:22;;;;;;;;;;;12.10;99.90;;;;;;5053393;28;20394;-73
2022/11/11 15:31:06;;;;;;;;;;;12.10;99.90;;;;;;5052897;28;19921;-76
2022/11/11 15:33:41;;;;;;;;;;;12.00;99.90;;;;;;5053442;28;19998;-74
2022/11/11 15:36:20;;;;;;;;;;;11.90;1.00;;;;;;5053599;28;19917;-76
2022/11/11 15:38:46;;;;;;;;;;;11.90;1.00;;;;;;5054028;28;19916;-74
2022/11/11 15:41:23;;;;;;;;;;;11.90;1.00;;;;;;5057079;28;19909;-74
2022/11/11 15:43:49;;;;;;;;;;;11.80;1.00;;;;;;5057090;28;19909;-76
2022/11/11 15:46:25;;;;;;;;;;;11.80;1.00;;;;;;5057220;28;20004;-74
2022/11/11 15:48:51;;;;;;;;;;;11.80;1.00;;;;;;5039028;28;19920;-76
2022/11/11 15:51:26;;;;;;;;;;;11.80;1.00;;;;;;5057091;28;19909;-75